createdAt,value
2018-03-31T00:00:05.375Z,68.24
2018-03-31T00:02:33.346Z,68.37
2018-03-31T00:05:01.275Z,68.23
2018-03-31T00:07:29.280Z,68.30
2018-03-31T00:09:57.241Z,68.43
2018-03-31T00:12:25.210Z,68.60
2018-03-31T00:14:53.162Z,68.63
2018-03-31T00:17:21.098Z,68.50
2018-03-31T00:19:49.109Z,68.88
2018-03-31T00:22:22.591Z,68.72
2018-03-31T00:24:50.567Z,68.70
2018-03-31T00:27:18.549Z,68.76
2018-03-31T00:29:46.517Z,68.65
2018-03-31T00:32:14.473Z,68.78
2018-03-31T00:34:42.430Z,68.77
2018-03-31T00:37:10.402Z,68.75
2018-03-31T00:39:38.363Z,68.72
2018-03-31T00:42:06.298Z,68.74
2018-03-31T00:44:34.281Z,68.55
2018-03-31T00:47:02.210Z,68.76
2018-03-31T00:49:30.222Z,68.80
2018-03-31T00:51:58.167Z,69.02
2018-03-31T00:54:26.118Z,68.57
2018-03-31T00:56:54.118Z,68.97
2018-03-31T00:59:22.042Z,68.76
2018-03-31T01:01:50.014Z,69.03
2018-03-31T01:04:18.007Z,68.78
2018-03-31T01:06:45.991Z,68.76
2018-03-31T01:09:13.930Z,68.77
2018-03-31T01:11:41.858Z,68.75
2018-03-31T01:14:09.836Z,68.75
2018-03-31T01:16:37.834Z,68.78
2018-03-31T01:19:05.790Z,68.95
2018-03-31T01:21:33.797Z,69.06
2018-03-31T01:24:01.770Z,69.14
2018-03-31T01:26:29.763Z,69.51
2018-03-31T01:28:57.754Z,69.25
2018-03-31T01:31:25.753Z,69.85
2018-03-31T01:33:53.760Z,69.95
2018-03-31T01:36:21.708Z,70.19
2018-03-31T01:38:49.670Z,71.64
2018-03-31T01:41:17.689Z,71.86
2018-03-31T01:43:45.702Z,72.32
2018-03-31T01:46:13.678Z,72.98
2018-03-31T01:48:41.639Z,72.45
2018-03-31T01:51:09.622Z,72.47
2018-03-31T01:53:37.614Z,72.59
2018-03-31T01:56:05.610Z,72.56
2018-03-31T01:58:33.553Z,72.48
2018-03-31T02:01:01.534Z,71.86
2018-03-31T02:03:29.494Z,71.63
2018-03-31T02:05:57.493Z,71.43
2018-03-31T02:08:25.478Z,71.27
2018-03-31T02:10:53.482Z,71.03
2018-03-31T02:13:21.434Z,70.83
2018-03-31T02:15:49.452Z,70.80
2018-03-31T02:18:17.401Z,70.66
2018-03-31T02:20:45.379Z,70.54
2018-03-31T02:23:13.379Z,70.50
2018-03-31T02:25:41.350Z,70.38
2018-03-31T02:28:09.354Z,70.33
2018-03-31T02:30:37.333Z,70.19
2018-03-31T02:33:05.308Z,70.24
2018-03-31T02:35:33.278Z,70.10
2018-03-31T02:38:01.270Z,70.31
2018-03-31T02:40:29.199Z,70.47
2018-03-31T02:42:57.145Z,70.67
2018-03-31T02:45:25.118Z,70.62
2018-03-31T02:47:53.071Z,70.58
2018-03-31T02:50:21.045Z,70.53
2018-03-31T02:52:49.016Z,70.53
2018-03-31T02:55:16.999Z,70.56
2018-03-31T02:57:44.990Z,70.53
2018-03-31T03:00:13.558Z,70.58
2018-03-31T03:02:41.466Z,70.52
2018-03-31T03:05:09.374Z,70.80
2018-03-31T03:07:37.335Z,70.78
2018-03-31T03:10:05.262Z,70.88
2018-03-31T03:12:33.222Z,70.80
2018-03-31T03:15:01.157Z,70.81
2018-03-31T03:17:28.830Z,70.55
2018-03-31T03:19:56.493Z,70.52
2018-03-31T03:22:24.136Z,70.70
2018-03-31T03:24:51.808Z,70.68
2018-03-31T03:27:19.450Z,70.78
2018-03-31T03:29:47.113Z,70.78
2018-03-31T03:32:14.737Z,70.83
2018-03-31T03:34:42.407Z,70.85
2018-03-31T03:37:10.089Z,70.90
2018-03-31T03:39:37.736Z,70.73
2018-03-31T03:42:05.402Z,70.72
2018-03-31T03:44:33.065Z,70.68
2018-03-31T03:47:00.731Z,70.64
2018-03-31T03:49:28.359Z,70.72
2018-03-31T03:51:55.996Z,70.76
2018-03-31T03:54:23.671Z,70.74
2018-03-31T03:56:51.341Z,70.91
2018-03-31T03:59:18.982Z,71.01
2018-03-31T04:01:46.646Z,70.90
2018-03-31T04:04:14.306Z,70.92
2018-03-31T04:06:41.938Z,71.51
2018-03-31T04:09:09.606Z,71.44
2018-03-31T04:11:37.239Z,71.57
2018-03-31T04:14:04.902Z,70.76
2018-03-31T04:16:32.540Z,70.36
2018-03-31T04:19:00.221Z,70.39
2018-03-31T04:21:27.894Z,70.15
2018-03-31T04:23:55.526Z,69.97
2018-03-31T04:26:23.214Z,70.29
2018-03-31T04:28:50.845Z,70.37
2018-03-31T04:31:18.474Z,70.65
2018-03-31T04:33:46.142Z,70.78
2018-03-31T04:36:13.810Z,70.87
2018-03-31T04:38:41.474Z,71.04
2018-03-31T04:41:09.102Z,71.27
2018-03-31T04:43:36.810Z,71.18
2018-03-31T04:46:04.482Z,71.49
2018-03-31T04:48:32.113Z,71.00
2018-03-31T04:50:59.761Z,71.14
2018-03-31T04:53:27.445Z,70.95
2018-03-31T04:55:55.111Z,70.86
2018-03-31T04:58:22.778Z,70.66
2018-03-31T05:00:50.413Z,70.75
2018-03-31T05:03:18.120Z,70.88
2018-03-31T05:05:45.822Z,71.09
2018-03-31T05:08:13.462Z,71.00
2018-03-31T05:10:41.134Z,71.15
2018-03-31T05:13:08.827Z,71.22
2018-03-31T05:15:36.487Z,71.16
2018-03-31T05:18:04.162Z,70.85
2018-03-31T05:20:31.802Z,70.39
2018-03-31T05:22:59.474Z,70.13
2018-03-31T05:25:27.154Z,69.74
2018-03-31T05:27:54.858Z,69.17
2018-03-31T05:30:22.499Z,69.34
2018-03-31T05:32:50.130Z,69.03
2018-03-31T05:35:17.812Z,68.25
2018-03-31T05:37:45.443Z,68.37
2018-03-31T05:40:13.158Z,67.90
2018-03-31T05:42:40.794Z,67.30
2018-03-31T05:45:08.487Z,67.04
2018-03-31T05:47:36.123Z,66.54
2018-03-31T05:50:03.762Z,66.40
2018-03-31T05:52:31.435Z,65.90
2018-03-31T05:54:59.101Z,65.49
2018-03-31T05:57:26.737Z,65.30
2018-03-31T05:59:54.419Z,65.24
2018-03-31T06:02:22.061Z,65.18
2018-03-31T06:04:49.764Z,65.37
2018-03-31T06:07:17.397Z,65.03
2018-03-31T06:09:45.034Z,64.74
2018-03-31T06:12:12.821Z,64.37
2018-03-31T06:14:40.480Z,63.96
2018-03-31T06:17:08.223Z,63.44
2018-03-31T06:19:35.942Z,63.75
2018-03-31T06:22:03.575Z,63.03
2018-03-31T06:24:31.214Z,62.92
2018-03-31T06:26:58.899Z,62.94
2018-03-31T06:29:26.570Z,62.70
2018-03-31T06:31:54.225Z,62.93
2018-03-31T06:34:21.898Z,62.45
2018-03-31T06:36:49.765Z,62.60
2018-03-31T06:39:17.528Z,62.62
2018-03-31T06:41:45.178Z,62.55
2018-03-31T06:44:12.839Z,62.46
2018-03-31T06:46:40.613Z,62.57
2018-03-31T06:49:08.282Z,62.67
2018-03-31T06:51:36.096Z,62.83
2018-03-31T06:54:03.814Z,63.07
2018-03-31T06:56:31.538Z,62.93
2018-03-31T06:58:59.240Z,63.08
2018-03-31T07:01:27.007Z,62.46
2018-03-31T07:03:54.770Z,63.48
2018-03-31T07:06:22.402Z,63.53
2018-03-31T07:08:50.117Z,63.72
2018-03-31T07:11:17.756Z,63.46
2018-03-31T07:13:45.526Z,63.24
2018-03-31T07:16:13.203Z,62.99
2018-03-31T07:18:40.842Z,62.79
2018-03-31T07:21:08.518Z,62.99
2018-03-31T07:23:36.190Z,62.44
2018-03-31T07:26:03.862Z,62.77
2018-03-31T07:28:31.498Z,62.57
2018-03-31T07:30:59.172Z,63.11
2018-03-31T07:33:26.936Z,62.44
2018-03-31T07:35:54.694Z,62.08
2018-03-31T07:38:22.459Z,61.92
2018-03-31T07:40:50.236Z,61.59
2018-03-31T07:43:17.915Z,60.46
2018-03-31T07:45:45.655Z,60.42
2018-03-31T07:48:13.590Z,59.87
2018-03-31T07:50:41.505Z,59.63
2018-03-31T07:53:09.195Z,60.22
2018-03-31T07:55:37.038Z,59.58
2018-03-31T07:58:04.692Z,59.71
2018-03-31T08:00:32.463Z,58.58
2018-03-31T08:03:00.119Z,58.59
2018-03-31T08:05:27.808Z,58.24
2018-03-31T08:07:55.485Z,57.30
2018-03-31T08:10:23.137Z,57.48
2018-03-31T08:12:50.888Z,57.88
2018-03-31T08:15:18.648Z,57.03
2018-03-31T08:17:46.420Z,56.38
2018-03-31T08:20:14.123Z,55.96
2018-03-31T08:22:41.843Z,55.63
2018-03-31T08:25:09.507Z,54.58
2018-03-31T08:27:37.267Z,54.32
2018-03-31T08:30:05.038Z,54.56
2018-03-31T08:32:32.809Z,54.19
2018-03-31T08:35:00.470Z,53.95
2018-03-31T08:37:28.237Z,53.80
2018-03-31T08:39:55.999Z,55.12
2018-03-31T08:42:23.674Z,53.25
2018-03-31T08:44:51.332Z,52.94
2018-03-31T08:47:18.986Z,52.34
2018-03-31T08:49:46.659Z,52.04
2018-03-31T08:52:14.419Z,50.74
2018-03-31T08:54:42.094Z,50.67
2018-03-31T08:57:09.729Z,50.50
2018-03-31T08:59:37.620Z,51.25
2018-03-31T09:02:05.489Z,51.58
2018-03-31T09:04:33.349Z,50.68
2018-03-31T09:07:01.002Z,51.57
2018-03-31T09:09:28.771Z,51.61
2018-03-31T09:11:56.651Z,50.49
2018-03-31T09:14:24.320Z,50.34
2018-03-31T09:16:51.972Z,50.17
2018-03-31T09:19:19.803Z,51.17
2018-03-31T09:21:47.499Z,50.50
2018-03-31T09:24:15.180Z,50.61
2018-03-31T09:26:42.941Z,49.87
2018-03-31T09:29:10.806Z,49.95
2018-03-31T09:31:38.467Z,50.11
2018-03-31T09:34:06.236Z,49.92
2018-03-31T09:36:34.091Z,49.69
2018-03-31T09:39:01.836Z,50.17
2018-03-31T09:41:29.519Z,50.34
2018-03-31T09:43:57.286Z,50.04
2018-03-31T09:46:25.061Z,50.22
2018-03-31T09:48:52.718Z,50.37
2018-03-31T09:51:20.488Z,51.14
2018-03-31T09:53:48.138Z,51.25
2018-03-31T09:56:15.815Z,51.36
2018-03-31T09:58:43.585Z,51.68
2018-03-31T10:01:11.244Z,51.24
2018-03-31T10:03:38.914Z,51.55
2018-03-31T10:06:06.673Z,51.25
2018-03-31T10:08:34.314Z,51.26
2018-03-31T10:11:02.104Z,51.23
2018-03-31T10:13:29.858Z,51.49
2018-03-31T10:15:57.542Z,51.30
2018-03-31T10:18:25.400Z,51.36
2018-03-31T10:20:53.164Z,51.34
2018-03-31T10:23:21.035Z,50.89
2018-03-31T10:25:48.747Z,50.61
2018-03-31T10:28:16.462Z,50.81
2018-03-31T10:30:44.110Z,51.43
2018-03-31T10:33:11.896Z,51.61
2018-03-31T10:35:39.535Z,51.16
2018-03-31T10:38:07.428Z,50.73
2018-03-31T10:40:35.171Z,50.34
2018-03-31T10:43:02.963Z,49.59
2018-03-31T10:45:30.718Z,49.39
2018-03-31T10:47:58.418Z,49.34
2018-03-31T10:50:26.176Z,49.72
2018-03-31T10:52:54.025Z,48.63
2018-03-31T10:55:21.684Z,48.69
2018-03-31T10:57:49.318Z,48.64
2018-03-31T11:00:17.119Z,48.36
2018-03-31T11:02:44.983Z,48.50
2018-03-31T11:05:12.753Z,48.79
2018-03-31T11:07:40.607Z,49.43
2018-03-31T11:10:08.280Z,51.00
2018-03-31T11:12:36.109Z,51.50
2018-03-31T11:15:03.802Z,51.47
2018-03-31T11:17:31.474Z,51.73
2018-03-31T11:19:59.308Z,52.81
2018-03-31T11:22:26.998Z,52.99
2018-03-31T11:24:54.841Z,53.25
2018-03-31T11:27:22.540Z,54.09
2018-03-31T11:29:50.226Z,54.64
2018-03-31T11:32:17.883Z,54.89
2018-03-31T11:34:45.631Z,54.69
2018-03-31T11:37:13.315Z,54.71
2018-03-31T11:39:41.042Z,54.83
2018-03-31T11:42:08.714Z,54.82
2018-03-31T11:44:36.381Z,55.40
2018-03-31T11:47:04.152Z,54.96
2018-03-31T11:49:31.913Z,55.43
2018-03-31T11:51:59.682Z,54.87
2018-03-31T11:54:27.326Z,54.80
2018-03-31T11:56:55.054Z,55.19
2018-03-31T11:59:22.772Z,55.09
2018-03-31T12:01:50.540Z,55.05
2018-03-31T12:04:18.407Z,55.62
2018-03-31T12:06:46.376Z,55.45
2018-03-31T12:09:14.031Z,55.56
2018-03-31T12:11:41.828Z,55.64
2018-03-31T12:14:09.668Z,55.80
2018-03-31T12:16:37.411Z,56.20
2018-03-31T12:19:05.211Z,55.91
2018-03-31T12:21:32.922Z,55.89
2018-03-31T12:24:00.614Z,55.85
2018-03-31T12:26:28.501Z,56.04
2018-03-31T12:28:56.181Z,55.48
2018-03-31T12:31:24.032Z,55.72
2018-03-31T12:33:51.691Z,55.66
2018-03-31T12:36:19.463Z,55.45
2018-03-31T12:38:47.124Z,55.42
2018-03-31T12:41:14.982Z,55.22
2018-03-31T12:43:42.657Z,54.77
2018-03-31T12:46:10.414Z,54.42
2018-03-31T12:48:38.050Z,54.53
2018-03-31T12:51:05.948Z,55.01
2018-03-31T12:53:33.582Z,54.66
2018-03-31T12:56:01.482Z,54.64
2018-03-31T12:58:29.315Z,54.84
2018-03-31T13:00:57.117Z,55.31
2018-03-31T13:03:24.810Z,55.26
2018-03-31T13:05:52.445Z,55.09
2018-03-31T13:08:20.207Z,54.81
2018-03-31T13:10:47.980Z,54.63
2018-03-31T13:13:15.754Z,54.41
2018-03-31T13:15:43.506Z,53.63
2018-03-31T13:18:11.266Z,53.04
2018-03-31T13:20:38.894Z,53.30
2018-03-31T13:23:06.558Z,53.43
2018-03-31T13:25:34.241Z,53.81
2018-03-31T13:28:02.023Z,53.46
2018-03-31T13:30:29.654Z,53.21
2018-03-31T13:32:57.375Z,52.60
2018-03-31T13:35:25.118Z,51.95
2018-03-31T13:37:52.887Z,50.82
2018-03-31T13:40:20.530Z,50.65
2018-03-31T13:42:48.315Z,50.20
2018-03-31T13:45:16.081Z,50.65
2018-03-31T13:47:43.840Z,50.37
2018-03-31T13:50:11.530Z,50.61
2018-03-31T13:52:39.198Z,50.76
2018-03-31T13:55:06.929Z,50.52
2018-03-31T13:57:34.758Z,51.09
2018-03-31T14:00:02.390Z,51.18
2018-03-31T14:02:30.152Z,51.14
2018-03-31T14:04:57.786Z,50.86
2018-03-31T14:07:25.453Z,50.87
2018-03-31T14:09:53.191Z,50.89
2018-03-31T14:12:20.867Z,51.11
2018-03-31T14:14:48.545Z,51.37
2018-03-31T14:17:16.215Z,51.29
2018-03-31T14:19:43.868Z,51.12
2018-03-31T14:22:11.630Z,50.91
2018-03-31T14:24:39.282Z,51.25
2018-03-31T14:27:07.062Z,51.20
2018-03-31T14:29:34.755Z,51.38
2018-03-31T14:32:02.492Z,51.11
2018-03-31T14:34:30.250Z,50.99
2018-03-31T14:36:57.918Z,50.91
2018-03-31T14:39:25.688Z,50.80
2018-03-31T14:41:53.467Z,50.95
2018-03-31T14:44:21.098Z,51.01
2018-03-31T14:46:48.876Z,51.36
2018-03-31T14:49:16.545Z,51.66
2018-03-31T14:51:44.210Z,51.90
2018-03-31T14:54:11.880Z,51.65
2018-03-31T14:56:39.514Z,51.95
2018-03-31T14:59:07.298Z,51.87
2018-03-31T15:01:34.961Z,51.73
2018-03-31T15:04:02.632Z,51.70
2018-03-31T15:06:30.320Z,52.15
2018-03-31T15:08:57.969Z,52.29
2018-03-31T15:11:25.657Z,52.31
2018-03-31T15:13:53.334Z,52.33
2018-03-31T15:16:21.049Z,52.38
2018-03-31T15:18:48.678Z,52.40
2018-03-31T15:21:16.345Z,52.85
2018-03-31T15:23:44.015Z,52.94
2018-03-31T15:26:11.698Z,53.03
2018-03-31T15:28:39.383Z,53.04
2018-03-31T15:31:07.005Z,53.02
2018-03-31T15:33:34.678Z,53.33
2018-03-31T15:36:02.352Z,53.18
2018-03-31T15:38:30.882Z,53.31
2018-03-31T15:40:58.550Z,53.65
2018-03-31T15:43:26.218Z,53.57
2018-03-31T15:45:53.884Z,53.96
2018-03-31T15:48:21.518Z,53.92
2018-03-31T15:50:49.198Z,53.88
2018-03-31T15:53:16.834Z,53.89
2018-03-31T15:55:44.471Z,53.84
2018-03-31T15:58:12.145Z,53.79
2018-03-31T16:00:39.781Z,53.85
2018-03-31T16:03:07.450Z,53.77
2018-03-31T16:05:35.078Z,53.85
2018-03-31T16:08:02.758Z,53.89
2018-03-31T16:10:30.390Z,54.15
2018-03-31T16:12:58.025Z,54.20
2018-03-31T16:15:25.694Z,54.65
2018-03-31T16:17:53.361Z,54.98
2018-03-31T16:20:21.026Z,54.71
2018-03-31T16:22:48.681Z,54.81
2018-03-31T16:25:16.350Z,55.39
2018-03-31T16:27:43.990Z,55.34
2018-03-31T16:30:11.658Z,55.56
2018-03-31T16:32:39.325Z,55.67
2018-03-31T16:35:07.000Z,56.06
2018-03-31T16:37:34.668Z,56.73
2018-03-31T16:40:02.334Z,57.16
2018-03-31T16:42:30.018Z,56.88
2018-03-31T16:44:57.686Z,57.62
2018-03-31T16:47:25.350Z,57.97
2018-03-31T16:49:53.026Z,57.94
2018-03-31T16:52:20.673Z,58.09
2018-03-31T16:54:48.362Z,58.31
2018-03-31T16:57:15.998Z,58.93
2018-03-31T16:59:43.674Z,59.01
2018-03-31T17:02:11.305Z,59.87
2018-03-31T17:04:38.948Z,59.58
2018-03-31T17:07:06.626Z,59.70
2018-03-31T17:09:34.254Z,59.73
2018-03-31T17:12:01.886Z,59.68
2018-03-31T17:14:29.563Z,60.23
2018-03-31T17:16:57.291Z,59.83
2018-03-31T17:19:24.926Z,59.99
2018-03-31T17:21:52.607Z,60.37
2018-03-31T17:24:20.243Z,60.45
2018-03-31T17:26:47.918Z,61.25
2018-03-31T17:29:15.550Z,61.64
2018-03-31T17:31:43.183Z,61.22
2018-03-31T17:34:10.862Z,61.30
2018-03-31T17:36:38.562Z,61.57
2018-03-31T17:39:06.237Z,62.39
2018-03-31T17:41:33.867Z,62.69
2018-03-31T17:44:01.533Z,62.39
2018-03-31T17:46:29.167Z,62.93
2018-03-31T17:48:56.802Z,63.18
2018-03-31T17:51:24.473Z,63.06
2018-03-31T17:53:52.152Z,62.66
2018-03-31T17:56:19.788Z,62.76
2018-03-31T17:58:47.468Z,63.41
2018-03-31T18:01:15.123Z,63.97
2018-03-31T18:03:42.805Z,64.06
2018-03-31T18:06:10.485Z,64.40
2018-03-31T18:08:38.122Z,64.46
2018-03-31T18:11:05.794Z,64.38
2018-03-31T18:13:33.462Z,64.22
2018-03-31T18:16:01.108Z,64.76
2018-03-31T18:18:28.802Z,64.57
2018-03-31T18:20:56.430Z,64.90
2018-03-31T18:23:24.070Z,65.12
2018-03-31T18:25:51.742Z,65.42
2018-03-31T18:28:19.408Z,65.17
2018-03-31T18:30:47.042Z,64.85
2018-03-31T18:33:14.732Z,65.92
2018-03-31T18:35:42.369Z,65.75
2018-03-31T18:38:10.034Z,65.45
2018-03-31T18:40:37.662Z,65.64
2018-03-31T18:43:05.299Z,66.05
2018-03-31T18:45:32.976Z,65.74
2018-03-31T18:48:00.624Z,66.16
2018-03-31T18:50:28.295Z,66.48
2018-03-31T18:52:55.934Z,66.77
2018-03-31T18:55:23.614Z,67.42
2018-03-31T18:57:51.250Z,67.24
2018-03-31T19:00:18.880Z,66.81
2018-03-31T19:02:46.557Z,67.01
2018-03-31T19:05:14.230Z,68.07
2018-03-31T19:07:41.863Z,68.43
2018-03-31T19:10:09.536Z,68.48
2018-03-31T19:12:37.206Z,67.52
2018-03-31T19:15:04.837Z,68.05
2018-03-31T19:17:32.565Z,68.30
2018-03-31T19:20:00.194Z,68.44
2018-03-31T19:22:27.822Z,68.84
2018-03-31T19:25:00.910Z,68.65
2018-03-31T19:27:28.597Z,68.74
2018-03-31T19:29:56.252Z,68.53
2018-03-31T19:32:23.917Z,68.13
2018-03-31T19:34:51.547Z,67.80
2018-03-31T19:37:19.222Z,67.80
2018-03-31T19:39:50.776Z,68.25
2018-03-31T19:42:18.459Z,68.03
2018-03-31T19:44:46.702Z,67.80
2018-03-31T19:47:14.374Z,67.83
2018-03-31T19:49:42.006Z,68.24
2018-03-31T19:52:09.638Z,68.08
2018-03-31T19:54:37.306Z,68.10
2018-03-31T19:57:04.974Z,68.23
2018-03-31T19:59:32.611Z,68.75
2018-03-31T20:02:00.380Z,68.87
2018-03-31T20:04:28.043Z,68.35
2018-03-31T20:06:55.678Z,68.50
2018-03-31T20:09:23.393Z,68.92
2018-03-31T20:11:51.064Z,68.62
2018-03-31T20:14:18.737Z,68.33
2018-03-31T20:16:46.371Z,68.44
2018-03-31T20:19:14.046Z,68.41
2018-03-31T20:21:41.684Z,68.10
2018-03-31T20:24:09.322Z,68.09
2018-03-31T20:26:37.005Z,67.97
2018-03-31T20:29:04.674Z,68.33
2018-03-31T20:31:32.342Z,68.74
2018-03-31T20:33:59.973Z,68.86
2018-03-31T20:36:27.642Z,68.70
2018-03-31T20:38:55.319Z,68.45
2018-03-31T20:41:22.948Z,68.82
2018-03-31T20:43:50.613Z,68.52
2018-03-31T20:46:18.292Z,68.82
2018-03-31T20:48:45.966Z,68.81
2018-03-31T20:51:13.666Z,68.55
2018-03-31T20:53:41.307Z,68.69
2018-03-31T20:56:08.991Z,68.57
2018-03-31T20:58:36.630Z,68.42
2018-03-31T21:01:04.267Z,68.17
2018-03-31T21:03:31.931Z,68.12
2018-03-31T21:05:59.568Z,68.46
2018-03-31T21:08:27.202Z,68.52
2018-03-31T21:10:54.835Z,68.22
2018-03-31T21:13:22.503Z,68.79
2018-03-31T21:15:50.206Z,68.89
2018-03-31T21:18:17.851Z,68.42
2018-03-31T21:20:45.526Z,68.54
2018-03-31T21:23:13.208Z,68.21
2018-03-31T21:25:40.842Z,68.31
2018-03-31T21:28:08.509Z,67.91
2018-03-31T21:30:36.178Z,68.27
2018-03-31T21:33:03.843Z,67.76
2018-03-31T21:35:31.548Z,67.48
2018-03-31T21:37:59.242Z,67.60
2018-03-31T21:40:26.910Z,67.60
2018-03-31T21:42:54.541Z,67.71
2018-03-31T21:45:22.217Z,68.58
2018-03-31T21:47:49.851Z,68.45
2018-03-31T21:50:17.523Z,68.38
2018-03-31T21:52:45.166Z,68.67
2018-03-31T21:55:12.838Z,68.43
2018-03-31T21:57:40.484Z,68.48
2018-03-31T22:00:08.162Z,68.59
2018-03-31T22:02:35.791Z,68.21
2018-03-31T22:05:03.476Z,67.96
2018-03-31T22:07:31.150Z,68.04
2018-03-31T22:09:58.818Z,68.06
2018-03-31T22:12:26.479Z,67.98
2018-03-31T22:14:59.561Z,68.14
2018-03-31T22:17:27.190Z,68.64
2018-03-31T22:19:54.870Z,68.55
2018-03-31T22:22:22.512Z,68.70
2018-03-31T22:24:50.142Z,69.20
2018-03-31T22:27:17.822Z,69.18
2018-03-31T22:29:45.463Z,69.47
2018-03-31T22:32:13.106Z,69.05
2018-03-31T22:34:40.776Z,69.09
2018-03-31T22:37:08.405Z,68.98
2018-03-31T22:39:36.070Z,69.35
2018-03-31T22:42:03.749Z,69.23
2018-03-31T22:44:31.377Z,68.09
2018-03-31T22:46:59.052Z,67.64
2018-03-31T22:49:26.677Z,67.45
2018-03-31T22:51:54.322Z,67.48
2018-03-31T22:54:21.990Z,67.30
2018-03-31T22:56:49.609Z,66.95
2018-03-31T22:59:17.270Z,66.93
2018-03-31T23:01:44.904Z,67.18
2018-03-31T23:04:12.853Z,67.26
2018-03-31T23:06:40.778Z,67.44
2018-03-31T23:09:08.733Z,67.29
2018-03-31T23:11:36.650Z,67.15
2018-03-31T23:14:04.636Z,67.84
2018-03-31T23:16:32.581Z,67.98
2018-03-31T23:19:00.537Z,67.64
2018-03-31T23:21:28.510Z,67.42
2018-03-31T23:23:56.434Z,67.58
2018-03-31T23:26:24.405Z,67.53
2018-03-31T23:28:52.321Z,67.66
2018-03-31T23:31:20.238Z,67.67
2018-03-31T23:33:48.186Z,67.83
2018-03-31T23:36:16.149Z,68.56
2018-03-31T23:38:43.809Z,68.40
2018-03-31T23:41:11.481Z,68.08
2018-03-31T23:43:39.146Z,68.86
2018-03-31T23:46:06.832Z,68.69
2018-03-31T23:48:34.478Z,68.65
2018-03-31T23:51:02.150Z,69.46
2018-03-31T23:53:29.826Z,69.59
2018-03-31T23:55:57.462Z,70.17
2018-03-31T23:58:25.139Z,69.94
